Twenthe, Netherlands
Current Conditions -  °F | °C
As of 7:20 PM on Friday 31 Oct 2014 (Local Time) from EDDG Reporting Station
Light Fog Light Fog  
Wind Chill: 55°   Ceiling: Unl
Heat Index: 55°   Visibility: 6mi
Dew Point: 55°   Wind: 2mph
Humidity: 100%   Direction: 100°E
Pressure: 30.18"   Gusts: NA
Location:  52.27°N, 6.9°E
Report Text: EDDG 311820Z 10002KT 9999 MIFG NSC 13/13 Q1022 NOSIG
Loading
Personal Weather Stations






























Interactive Weather Map
Tropical Storm Tracking
New forecast layout! Learn more

10-Day Weather Forecast

Advertisements
Track Severe Weather on mobile